Time;durP1;ratioP1;P1;durP2;ratioP2;P2;SDS_P1;SDS_P2;PMS_P1;PMS_P2;Temp;Humidity;BMP_temperature;BMP_pressure;BME280_temperature;BME280_humidity;BME280_pressure;Samples;Min_cycle;Max_cycle;Signal;HPM_P1;HPM_P2
2021/09/28 00:00:59;;;;;;;20.77;17.35;;;19.30;99.90;;;;;;5006808;28;20022;-66
2021/09/28 00:03:25;;;;;;;20.92;16.77;;;19.30;99.90;;;;;;4998439;28;20489;-68
2021/09/28 00:05:50;;;;;;;21.73;17.45;;;19.20;99.90;;;;;;5012730;28;20040;-68
2021/09/28 00:08:16;;;;;;;20.58;16.42;;;19.20;99.90;;;;;;5013360;28;20063;-68
2021/09/28 00:10:41;;;;;;;22.23;16.77;;;19.20;99.90;;;;;;5010344;28;20030;-67
2021/09/28 00:13:08;;;;;;;19.15;16.45;;;19.20;99.90;;;;;;5014003;28;20076;-67
2021/09/28 00:15:34;;;;;;;21.67;16.92;;;19.20;99.90;;;;;;5009336;28;20508;-67
2021/09/28 00:17:59;;;;;;;23.30;17.60;;;19.10;99.90;;;;;;5008922;28;20030;-68
2021/09/28 00:20:25;;;;;;;20.42;16.85;;;19.10;99.90;;;;;;4997305;28;20044;-68
2021/09/28 00:22:54;;;;;;;21.48;17.85;;;19.10;99.90;;;;;;5014239;28;20559;-67
2021/09/28 00:25:21;;;;;;;21.50;16.65;;;19.10;99.90;;;;;;4997919;28;20032;-68
2021/09/28 00:27:46;;;;;;;23.05;16.77;;;19.10;99.90;;;;;;5006993;28;20095;-67
2021/09/28 00:30:12;;;;;;;20.63;16.50;;;19.10;99.90;;;;;;5008577;28;20049;-67
2021/09/28 00:32:37;;;;;;;23.55;17.70;;;19.10;99.90;;;;;;5007059;28;20113;-67
2021/09/28 00:35:03;;;;;;;23.80;16.60;;;19.10;99.90;;;;;;5001581;28;20037;-67
2021/09/28 00:37:29;;;;;;;19.88;16.20;;;19.10;99.90;;;;;;5009944;28;20041;-67
2021/09/28 00:39:54;;;;;;;21.30;15.50;;;19.10;99.90;;;;;;5009718;28;20037;-67
2021/09/28 00:42:20;;;;;;;22.50;17.10;;;19.10;99.90;;;;;;5000844;28;20027;-67
2021/09/28 00:44:46;;;;;;;20.83;16.55;;;19.10;99.90;;;;;;5012090;28;20037;-67
2021/09/28 00:47:13;;;;;;;23.92;18.35;;;19.10;99.90;;;;;;5011006;28;20038;-67
2021/09/28 00:49:40;;;;;;;23.40;17.85;;;19.10;99.90;;;;;;5013763;28;20064;-67
2021/09/28 00:52:07;;;;;;;19.58;16.30;;;19.10;99.90;;;;;;5010895;28;20022;-67
2021/09/28 00:54:33;;;;;;;19.27;16.50;;;19.10;99.90;;;;;;5006080;28;20050;-67
2021/09/28 00:56:59;;;;;;;25.17;17.92;;;19.10;99.90;;;;;;4994626;28;20487;-66
2021/09/28 00:59:24;;;;;;;23.50;18.50;;;19.10;99.90;;;;;;5004103;28;20050;-67
2021/09/28 01:01:50;;;;;;;24.33;17.20;;;19.10;99.90;;;;;;5012331;28;20030;-66
2021/09/28 01:04:18;;;;;;;21.88;16.80;;;19.10;99.90;;;;;;5012035;28;20036;-67
2021/09/28 01:06:44;;;;;;;22.08;17.55;;;19.20;99.90;;;;;;5011475;28;20022;-67
2021/09/28 01:09:12;;;;;;;21.80;16.45;;;19.10;99.90;;;;;;5011686;28;20064;-67
2021/09/28 01:11:39;;;;;;;23.38;17.90;;;19.10;99.90;;;;;;5006367;28;20050;-68
2021/09/28 01:14:04;;;;;;;22.98;17.08;;;19.10;99.90;;;;;;5007895;28;20052;-67
2021/09/28 01:16:30;;;;;;;21.05;16.40;;;19.10;99.90;;;;;;5010237;28;20541;-67
2021/09/28 01:18:55;;;;;;;23.42;16.80;;;19.10;99.90;;;;;;5012934;28;20037;-67
2021/09/28 01:21:22;;;;;;;21.75;16.83;;;19.20;99.90;;;;;;5002670;28;20019;-67
2021/09/28 01:23:48;;;;;;;20.65;16.45;;;19.20;99.90;;;;;;4995068;28;20064;-68
2021/09/28 01:26:23;;;;;;;19.83;16.52;;;19.20;99.90;;;;;;5010772;28;20061;-68
2021/09/28 01:28:49;;;;;;;23.05;17.05;;;19.20;99.90;;;;;;5007851;28;20653;-68
2021/09/28 01:31:15;;;;;;;23.23;17.08;;;19.20;99.90;;;;;;5007799;28;20113;-68
2021/09/28 01:33:41;;;;;;;22.30;16.67;;;19.20;99.90;;;;;;5010877;28;20379;-67
2021/09/28 01:36:06;;;;;;;20.75;15.63;;;19.20;99.90;;;;;;5014641;28;20081;-67
2021/09/28 01:38:32;;;;;;;20.58;16.10;;;19.20;99.90;;;;;;5011945;28;20034;-67
2021/09/28 01:40:58;;;;;;;22.17;16.23;;;19.20;99.90;;;;;;5011402;28;20391;-67
2021/09/28 01:43:23;;;;;;;20.25;16.45;;;19.20;99.90;;;;;;5012651;28;20096;-67
2021/09/28 01:45:58;;;;;;;21.60;16.17;;;19.20;99.90;;;;;;5009685;28;20093;-67
2021/09/28 01:48:35;;;;;;;19.73;16.00;;;19.20;99.90;;;;;;5026821;28;20033;-67
2021/09/28 01:51:01;;;;;;;18.80;15.07;;;19.20;99.90;;;;;;5005198;28;20053;-67
2021/09/28 01:53:26;;;;;;;19.50;15.15;;;19.20;99.90;;;;;;5008750;28;20501;-67
2021/09/28 01:55:51;;;;;;;20.85;15.73;;;19.30;99.90;;;;;;5009070;28;20065;-67
2021/09/28 01:58:17;;;;;;;21.33;15.20;;;19.20;99.90;;;;;;4994639;28;20526;-68
2021/09/28 02:00:44;;;;;;;18.52;14.90;;;19.20;99.90;;;;;;4996645;28;20029;-67
2021/09/28 02:03:10;;;;;;;20.67;15.07;;;19.20;99.90;;;;;;5005195;28;20032;-67
2021/09/28 02:05:35;;;;;;;21.42;15.45;;;19.30;99.90;;;;;;5010076;28;20109;-67
2021/09/28 02:08:01;;;;;;;19.88;15.25;;;19.30;99.90;;;;;;5010590;28;20534;-67
2021/09/28 02:10:26;;;;;;;21.38;15.27;;;19.20;99.90;;;;;;5011202;28;20026;-67
2021/09/28 02:12:52;;;;;;;17.15;13.65;;;19.20;99.90;;;;;;5010352;28;20029;-67
2021/09/28 02:15:17;;;;;;;18.75;14.25;;;19.30;99.90;;;;;;5011158;28;20025;-67
2021/09/28 02:17:44;;;;;;;19.40;13.18;;;19.30;99.90;;;;;;5009977;28;20364;-67
2021/09/28 02:20:10;;;;;;;19.55;13.32;;;19.30;99.90;;;;;;5005871;28;20045;-68
2021/09/28 02:22:36;;;;;;;15.63;12.07;;;19.30;99.90;;;;;;5000068;28;20521;-68
2021/09/28 02:25:02;;;;;;;18.55;12.15;;;19.30;99.90;;;;;;5008757;28;20034;-67
2021/09/28 02:27:29;;;;;;;16.92;13.27;;;19.30;99.90;;;;;;5009429;28;20022;-68
2021/09/28 02:29:54;;;;;;;14.45;11.20;;;19.30;99.90;;;;;;4990754;28;20026;-68
2021/09/28 02:32:20;;;;;;;14.73;11.43;;;19.30;99.90;;;;;;4998932;28;20044;-67
2021/09/28 02:34:45;;;;;;;14.40;11.18;;;19.30;99.90;;;;;;5003887;28;20030;-68
2021/09/28 02:37:12;;;;;;;13.68;10.95;;;19.30;99.90;;;;;;5020246;28;20034;-67
2021/09/28 02:39:40;;;;;;;13.80;10.65;;;19.30;99.90;;;;;;5010754;28;20073;-68
2021/09/28 02:42:09;;;;;;;13.68;11.23;;;19.30;99.90;;;;;;5008813;28;20041;-68
2021/09/28 02:44:35;;;;;;;14.18;10.60;;;19.30;99.90;;;;;;5003369;28;20026;-67
2021/09/28 02:47:01;;;;;;;13.95;10.43;;;19.30;99.90;;;;;;4996124;28;20030;-68
2021/09/28 02:49:27;;;;;;;12.07;10.20;;;19.40;99.90;;;;;;5004473;28;20588;-68
2021/09/28 02:51:52;;;;;;;11.23;9.65;;;19.40;99.90;;;;;;5008403;28;20109;-67
2021/09/28 02:54:18;;;;;;;13.93;10.82;;;19.40;99.90;;;;;;5011175;28;20050;-67
2021/09/28 02:56:43;;;;;;;14.07;10.07;;;19.40;99.90;;;;;;5008659;28;20113;-67
2021/09/28 02:59:09;;;;;;;12.70;9.75;;;19.30;99.90;;;;;;5010409;28;20445;-67
2021/09/28 03:01:34;;;;;;;13.68;9.60;;;19.30;99.90;;;;;;5008115;28;20105;-67
2021/09/28 03:03:59;;;;;;;11.93;9.20;;;19.30;99.90;;;;;;5006822;28;20041;-67
2021/09/28 03:06:25;;;;;;;12.27;9.98;;;19.30;99.90;;;;;;5001817;28;20117;-67
2021/09/28 03:08:50;;;;;;;12.70;9.45;;;19.30;99.90;;;;;;5011112;28;20026;-68
2021/09/28 03:11:16;;;;;;;11.52;9.63;;;19.30;99.90;;;;;;5009523;28;20079;-67
2021/09/28 03:13:41;;;;;;;13.57;9.20;;;19.40;99.90;;;;;;5011547;28;20033;-67
2021/09/28 03:16:07;;;;;;;13.70;9.70;;;19.30;99.90;;;;;;5007849;28;20030;-66
2021/09/28 03:18:33;;;;;;;16.88;8.80;;;19.40;99.90;;;;;;5010947;28;20070;-67
2021/09/28 03:20:58;;;;;;;12.40;9.40;;;19.30;99.90;;;;;;5009572;28;20080;-67
2021/09/28 03:23:24;;;;;;;11.23;8.77;;;19.30;99.90;;;;;;5008297;28;20443;-68
2021/09/28 03:25:49;;;;;;;10.57;8.63;;;19.30;99.90;;;;;;5011095;28;20068;-67
2021/09/28 03:28:16;;;;;;;14.30;9.18;;;19.30;99.90;;;;;;5008751;28;20022;-68
2021/09/28 03:30:42;;;;;;;11.07;8.20;;;19.30;99.90;;;;;;5011538;28;20478;-67
2021/09/28 03:33:08;;;;;;;11.50;8.85;;;19.30;99.90;;;;;;5007807;28;20056;-67
2021/09/28 03:35:33;;;;;;;11.20;8.95;;;19.20;99.90;;;;;;5007788;28;20053;-67
2021/09/28 03:37:59;;;;;;;13.38;8.35;;;19.30;99.90;;;;;;5005273;28;20083;-67
2021/09/28 03:40:29;;;;;;;9.82;8.10;;;19.20;99.90;;;;;;5011141;28;20041;-67
2021/09/28 03:42:58;;;;;;;12.05;9.27;;;19.30;99.90;;;;;;5009418;28;20036;-67
2021/09/28 03:45:24;;;;;;;15.48;9.60;;;19.30;99.90;;;;;;4993483;28;20034;-67
2021/09/28 03:47:49;;;;;;;11.38;8.27;;;19.20;99.90;;;;;;5003466;28;20601;-68
2021/09/28 03:50:15;;;;;;;10.13;7.03;;;19.20;99.90;;;;;;5011038;28;20478;-68
2021/09/28 03:52:41;;;;;;;10.65;8.40;;;19.20;99.90;;;;;;4998535;28;20046;-67
2021/09/28 03:55:06;;;;;;;10.30;8.07;;;19.20;99.90;;;;;;5008388;28;20042;-67
2021/09/28 03:57:32;;;;;;;10.13;7.60;;;19.20;99.90;;;;;;5011141;28;20026;-68
2021/09/28 04:00:00;;;;;;;11.15;7.65;;;19.10;99.90;;;;;;5013234;28;20442;-68
2021/09/28 04:02:26;;;;;;;11.25;8.02;;;19.10;99.90;;;;;;5012757;28;20041;-67
2021/09/28 04:04:52;;;;;;;10.10;7.55;;;19.10;99.90;;;;;;5013281;28;20030;-68
2021/09/28 04:07:17;;;;;;;11.23;7.95;;;19.10;99.90;;;;;;5011838;28;20018;-69
2021/09/28 04:09:43;;;;;;;10.30;7.72;;;19.00;99.90;;;;;;5013185;28;20109;-68
2021/09/28 04:12:09;;;;;;;9.80;7.50;;;19.00;99.90;;;;;;5005357;28;20025;-67
2021/09/28 04:14:35;;;;;;;10.88;7.03;;;19.00;99.90;;;;;;5011658;28;20117;-67
2021/09/28 04:17:01;;;;;;;11.43;7.18;;;19.00;99.90;;;;;;5005993;28;20126;-68
2021/09/28 04:19:26;;;;;;;10.00;6.68;;;19.00;99.90;;;;;;5012544;28;20040;-68
2021/09/28 04:21:52;;;;;;;9.13;6.85;;;18.90;99.90;;;;;;5012796;28;20022;-68
2021/09/28 04:24:18;;;;;;;8.07;6.10;;;18.90;99.90;;;;;;5013225;28;20044;-68
2021/09/28 04:26:43;;;;;;;9.13;6.20;;;18.90;99.90;;;;;;5009736;28;20109;-68
2021/09/28 04:29:09;;;;;;;8.45;6.45;;;18.90;99.90;;;;;;5012318;28;20029;-68
2021/09/28 04:31:34;;;;;;;8.25;5.82;;;18.90;99.90;;;;;;5012380;28;20096;-68
2021/09/28 04:34:00;;;;;;;8.25;5.35;;;18.90;99.90;;;;;;5013587;28;20021;-68
2021/09/28 04:36:26;;;;;;;8.45;6.05;;;18.90;99.90;;;;;;5009390;28;20025;-68
2021/09/28 04:38:52;;;;;;;6.88;5.55;;;18.90;99.90;;;;;;5012907;28;20048;-68
2021/09/28 04:41:17;;;;;;;9.80;6.32;;;18.80;99.90;;;;;;5008818;28;22431;-67
2021/09/28 04:43:43;;;;;;;9.07;5.18;;;18.80;99.90;;;;;;5008753;28;20569;-67
2021/09/28 04:46:08;;;;;;;7.15;4.70;;;18.80;99.90;;;;;;5011793;28;20536;-68
2021/09/28 04:48:34;;;;;;;7.30;5.60;;;18.80;99.90;;;;;;5012565;28;20030;-68
2021/09/28 04:51:01;;;;;;;10.45;4.88;;;18.70;99.90;;;;;;5011195;28;20467;-67
2021/09/28 04:53:27;;;;;;;7.60;4.30;;;18.70;99.90;;;;;;5012434;28;20030;-66
2021/09/28 04:55:55;;;;;;;7.20;4.47;;;18.70;99.90;;;;;;5012676;28;20084;-67
2021/09/28 04:58:26;;;;;;;6.63;4.10;;;18.70;99.80;;;;;;5009221;28;20044;-67
2021/09/28 05:00:52;;;;;;;9.48;4.35;;;18.60;99.80;;;;;;5012799;28;20185;-67
2021/09/28 05:03:18;;;;;;;8.10;3.20;;;18.50;99.80;;;;;;5011976;28;20018;-67
2021/09/28 05:05:44;;;;;;;6.25;3.85;;;18.50;99.80;;;;;;5009372;28;20498;-67
2021/09/28 05:08:09;;;;;;;5.72;3.40;;;18.50;99.80;;;;;;5005018;28;20032;-67
2021/09/28 05:10:35;;;;;;;5.47;3.35;;;18.50;99.70;;;;;;5013194;28;20036;-67
2021/09/28 05:13:00;;;;;;;5.05;3.00;;;18.40;99.70;;;;;;5010395;28;20356;-67
2021/09/28 05:15:26;;;;;;;5.07;2.90;;;18.40;99.70;;;;;;5008386;28;20030;-68
2021/09/28 05:17:52;;;;;;;7.07;3.75;;;18.40;99.60;;;;;;5005441;28;20029;-68
2021/09/28 05:20:17;;;;;;;6.97;3.50;;;18.40;99.70;;;;;;5006457;28;20018;-68
2021/09/28 05:22:43;;;;;;;4.90;3.30;;;18.40;99.60;;;;;;5005524;28;20026;-70
2021/09/28 05:25:09;;;;;;;5.13;3.05;;;18.40;99.50;;;;;;5006543;28;20031;-68
2021/09/28 05:27:34;;;;;;;4.90;2.70;;;18.40;99.40;;;;;;5002647;28;20113;-68
2021/09/28 05:30:00;;;;;;;3.95;2.50;;;18.40;99.40;;;;;;5008048;28;20483;-69
2021/09/28 05:32:25;;;;;;;3.78;2.25;;;18.40;99.30;;;;;;5008744;28;20033;-70
2021/09/28 05:34:50;;;;;;;5.78;1.98;;;18.30;99.20;;;;;;4994590;28;20542;-70
2021/09/28 05:37:16;;;;;;;4.32;2.05;;;18.30;99.10;;;;;;5006717;28;20029;-70
2021/09/28 05:39:41;;;;;;;3.67;1.95;;;18.40;99.10;;;;;;5010323;28;20041;-70
2021/09/28 05:42:07;;;;;;;6.45;2.72;;;18.30;99.10;;;;;;5003337;28;20025;-70
2021/09/28 05:44:33;;;;;;;4.88;2.38;;;18.30;99.10;;;;;;5003278;28;20038;-70
2021/09/28 05:46:59;;;;;;;6.18;1.95;;;18.30;99.10;;;;;;5001317;28;20021;-70
2021/09/28 05:49:25;;;;;;;4.32;2.17;;;18.30;99.00;;;;;;5000032;28;20023;-70
2021/09/28 05:51:56;;;;;;;3.60;1.75;;;18.30;98.90;;;;;;5004785;28;20483;-70
2021/09/28 05:54:22;;;;;;;4.60;2.05;;;18.20;98.90;;;;;;5002018;28;20726;-70
2021/09/28 05:56:49;;;;;;;3.67;2.10;;;18.30;98.90;;;;;;5007703;28;20033;-70
2021/09/28 05:59:15;;;;;;;4.25;2.15;;;18.20;98.90;;;;;;5009441;28;20073;-70
2021/09/28 06:01:41;;;;;;;3.33;1.98;;;18.20;98.90;;;;;;5001977;28;20022;-70
2021/09/28 06:04:07;;;;;;;5.47;1.80;;;18.30;99.00;;;;;;5001326;28;20031;-70
2021/09/28 06:06:32;;;;;;;4.85;2.42;;;18.30;98.90;;;;;;4999601;28;20030;-70
2021/09/28 06:08:58;;;;;;;7.45;2.10;;;18.30;98.90;;;;;;5003668;28;20108;-70
2021/09/28 06:11:24;;;;;;;4.07;1.65;;;18.20;98.80;;;;;;5005612;28;20049;-69
2021/09/28 06:13:50;;;;;;;3.67;2.10;;;18.20;98.80;;;;;;5006838;28;20036;-71
2021/09/28 06:16:16;;;;;;;3.72;2.35;;;18.30;98.60;;;;;;5004002;28;20022;-72
2021/09/28 06:18:42;;;;;;;6.72;2.10;;;18.10;98.50;;;;;;4999115;28;20033;-70
2021/09/28 06:21:07;;;;;;;3.38;1.67;;;18.10;98.60;;;;;;5007924;28;20101;-71
2021/09/28 06:23:33;;;;;;;5.88;1.90;;;18.10;98.70;;;;;;5001345;28;20121;-72
2021/09/28 06:25:58;;;;;;;7.43;2.25;;;18.10;98.70;;;;;;5000332;28;20029;-71
2021/09/28 06:28:24;;;;;;;4.13;2.00;;;18.10;98.60;;;;;;4999648;28;20117;-72
2021/09/28 06:30:49;;;;;;;5.47;2.42;;;18.10;98.60;;;;;;5000138;28;20105;-72
2021/09/28 06:33:15;;;;;;;4.72;2.17;;;18.10;99.10;;;;;;5007373;28;20029;-71
2021/09/28 06:35:41;;;;;;;5.35;2.13;;;18.20;98.70;;;;;;4997028;28;20030;-71
2021/09/28 06:38:06;;;;;;;4.25;1.88;;;18.10;98.50;;;;;;5007754;28;20030;-71
2021/09/28 06:40:33;;;;;;;4.97;1.90;;;18.10;98.70;;;;;;5009147;28;20096;-71
2021/09/28 06:42:59;;;;;;;4.03;1.77;;;18.20;98.70;;;;;;4998891;28;20564;-71
2021/09/28 06:45:24;;;;;;;3.13;1.85;;;18.20;98.60;;;;;;5007647;28;20021;-72
2021/09/28 06:47:52;;;;;;;3.88;2.05;;;18.20;98.40;;;;;;5007611;28;20069;-71
2021/09/28 06:50:18;;;;;;;4.60;1.85;;;18.20;98.40;;;;;;5008557;28;20113;-71
2021/09/28 06:52:44;;;;;;;4.28;1.88;;;18.20;98.30;;;;;;4996718;28;20023;-71
2021/09/28 06:55:11;;;;;;;4.35;2.35;;;18.10;98.20;;;;;;5005297;28;20118;-71
2021/09/28 06:57:37;;;;;;;7.35;2.97;;;18.10;98.30;;;;;;5005221;28;20114;-71
2021/09/28 07:00:06;;;;;;;6.88;2.65;;;18.10;98.20;;;;;;5004381;28;20109;-71
2021/09/28 07:02:32;;;;;;;7.45;2.40;;;18.00;98.20;;;;;;5002785;28;20041;-70
2021/09/28 07:04:57;;;;;;;5.45;1.90;;;18.10;98.30;;;;;;5008515;28;20038;-71
2021/09/28 07:07:24;;;;;;;5.05;2.53;;;18.10;98.30;;;;;;5006317;28;20022;-71
2021/09/28 07:09:50;;;;;;;5.63;2.38;;;18.20;98.10;;;;;;5003781;28;20137;-71
2021/09/28 07:12:16;;;;;;;8.63;2.35;;;18.20;98.10;;;;;;5007740;28;20030;-71
2021/09/28 07:14:41;;;;;;;4.47;2.15;;;18.10;98.00;;;;;;5002071;28;20402;-70
2021/09/28 07:17:07;;;;;;;4.57;1.92;;;18.20;98.20;;;;;;5007869;28;20030;-70
2021/09/28 07:19:32;;;;;;;3.90;1.90;;;18.20;98.20;;;;;;4999133;28;20041;-70
2021/09/28 07:21:58;;;;;;;6.55;2.45;;;18.20;98.10;;;;;;5001089;28;20021;-70
2021/09/28 07:24:23;;;;;;;7.65;2.80;;;18.20;98.10;;;;;;5008051;28;20048;-70
2021/09/28 07:26:49;;;;;;;7.32;2.38;;;18.30;98.10;;;;;;5002555;28;20497;-70
2021/09/28 07:29:15;;;;;;;4.93;2.13;;;18.30;98.10;;;;;;5009496;28;20026;-70
2021/09/28 07:31:40;;;;;;;6.50;2.15;;;18.40;98.00;;;;;;5005746;28;20034;-69
2021/09/28 07:34:06;;;;;;;7.85;2.35;;;18.40;97.90;;;;;;4994276;28;20058;-71
2021/09/28 07:36:31;;;;;;;6.07;2.28;;;18.40;97.60;;;;;;5001704;28;20060;-72
2021/09/28 07:38:57;;;;;;;7.45;2.47;;;18.30;97.50;;;;;;4997110;28;20447;-71
2021/09/28 07:41:22;;;;;;;10.10;2.28;;;18.30;97.50;;;;;;5005094;28;20026;-72
2021/09/28 07:43:48;;;;;;;4.30;2.00;;;18.30;97.40;;;;;;5011082;28;20394;-71
2021/09/28 07:46:14;;;;;;;8.32;2.47;;;18.20;97.40;;;;;;5010359;28;20029;-71
2021/09/28 07:48:39;;;;;;;6.20;2.65;;;18.30;97.30;;;;;;5011252;28;20410;-71
2021/09/28 07:51:05;;;;;;;5.80;2.22;;;18.20;97.40;;;;;;5007663;28;20438;-71
2021/09/28 07:53:30;;;;;;;7.03;2.67;;;18.20;97.40;;;;;;5009951;28;20040;-70
2021/09/28 07:55:56;;;;;;;7.40;2.10;;;18.20;97.50;;;;;;5008003;28;20029;-71
2021/09/28 07:58:22;;;;;;;6.45;2.28;;;18.20;97.50;;;;;;5010004;28;20104;-71
2021/09/28 08:00:47;;;;;;;8.32;2.30;;;18.20;97.50;;;;;;5004009;28;20045;-71
2021/09/28 08:03:13;;;;;;;6.20;2.70;;;18.20;97.50;;;;;;5010965;28;20068;-71
2021/09/28 08:05:39;;;;;;;5.93;2.20;;;18.20;97.50;;;;;;5009727;28;20085;-71
2021/09/28 08:08:05;;;;;;;7.05;2.67;;;18.30;97.60;;;;;;5003124;28;20031;-73
2021/09/28 08:10:30;;;;;;;8.77;3.03;;;18.30;97.60;;;;;;5010696;28;20559;-71
2021/09/28 08:12:59;;;;;;;8.27;2.83;;;18.30;97.50;;;;;;5008180;28;20044;-71
2021/09/28 08:15:25;;;;;;;6.05;2.67;;;18.30;97.50;;;;;;4998755;28;20411;-71
2021/09/28 08:17:50;;;;;;;5.70;2.47;;;18.30;97.50;;;;;;5011228;28;20129;-71
2021/09/28 08:20:18;;;;;;;5.00;2.63;;;18.30;97.70;;;;;;5009126;28;20080;-71
2021/09/28 08:22:44;;;;;;;6.90;2.72;;;18.30;97.80;;;;;;5006836;28;20105;-70
2021/09/28 08:25:14;;;;;;;6.88;2.70;;;18.30;97.90;;;;;;5006059;28;20129;-70
2021/09/28 08:30:24;;;;;;;6.57;3.05;;;18.20;98.10;;;;;;5001363;28;20131;-70
2021/09/28 08:32:49;;;;;;;6.13;3.25;;;18.20;98.20;;;;;;5006462;28;20115;-69
2021/09/28 08:35:15;;;;;;;6.30;3.03;;;18.20;98.40;;;;;;4998994;28;20027;-70
2021/09/28 08:37:41;;;;;;;5.13;2.50;;;18.10;98.30;;;;;;5005651;28;20029;-70
2021/09/28 08:40:07;;;;;;;3.70;2.30;;;18.10;98.50;;;;;;4993590;28;20454;-70
2021/09/28 08:42:33;;;;;;;6.22;2.65;;;18.10;98.60;;;;;;5005268;28;20116;-70
2021/09/28 08:44:58;;;;;;;4.53;2.20;;;18.10;98.70;;;;;;5008390;28;20534;-73
2021/09/28 08:47:44;;;;;;;6.68;2.72;;;18.00;98.70;;;;;;5002471;28;20018;-71
2021/09/28 08:50:18;;;;;;;5.18;2.60;;;18.00;98.70;;;;;;5011057;28;20041;-70
2021/09/28 08:52:46;;;;;;;7.43;2.60;;;18.00;98.80;;;;;;5003750;28;20065;-69
2021/09/28 08:55:12;;;;;;;6.38;2.67;;;18.00;98.80;;;;;;5006929;28;20395;-71
2021/09/28 08:57:39;;;;;;;5.88;2.40;;;18.00;98.70;;;;;;5009021;28;20029;-70
2021/09/28 09:00:30;;;;;;;12.63;3.30;;;18.00;98.80;;;;;;4998200;28;20490;-71
2021/09/28 09:02:56;;;;;;;9.30;3.30;;;17.90;98.80;;;;;;5006789;28;20433;-69
2021/09/28 09:05:22;;;;;;;9.73;3.03;;;17.90;98.80;;;;;;5006763;28;20022;-70
2021/09/28 09:08:04;;;;;;;8.25;3.33;;;17.90;98.90;;;;;;5011777;28;20109;-69
2021/09/28 09:10:33;;;;;;;9.13;3.67;;;17.90;99.00;;;;;;4993365;28;20483;-70
2021/09/28 09:12:58;;;;;;;7.05;3.15;;;18.00;99.10;;;;;;5001939;28;20650;-70
2021/09/28 09:15:24;;;;;;;8.32;3.67;;;18.10;99.10;;;;;;5004505;28;20486;-70
2021/09/28 09:17:52;;;;;;;7.38;3.65;;;18.10;99.00;;;;;;5005106;28;20046;-69
2021/09/28 09:20:22;;;;;;;8.93;3.08;;;18.10;98.90;;;;;;5007760;28;20041;-71
2021/09/28 09:22:48;;;;;;;7.82;3.63;;;18.10;99.10;;;;;;5008176;28;20022;-71
2021/09/28 09:25:21;;;;;;;7.18;3.03;;;18.20;98.90;;;;;;5011097;28;20104;-71
2021/09/28 09:27:47;;;;;;;10.05;3.53;;;18.20;99.00;;;;;;5012897;28;20026;-71
2021/09/28 09:30:18;;;;;;;10.23;3.70;;;18.20;98.90;;;;;;5005231;28;20022;-71
2021/09/28 09:32:59;;;;;;;14.13;4.00;;;18.30;98.70;;;;;;4993525;28;20066;-71
2021/09/28 09:35:31;;;;;;;6.90;2.83;;;18.30;98.80;;;;;;5009201;28;20041;-71
2021/09/28 09:38:12;;;;;;;8.38;3.00;;;18.30;98.60;;;;;;5012090;28;20038;-70
2021/09/28 09:40:40;;;;;;;5.07;3.05;;;18.40;98.40;;;;;;5003243;28;20049;-71
2021/09/28 09:43:07;;;;;;;7.43;3.50;;;18.40;98.50;;;;;;5007334;28;20027;-70
2021/09/28 09:45:32;;;;;;;6.68;3.10;;;18.50;98.60;;;;;;5001931;28;20019;-71
2021/09/28 09:47:58;;;;;;;7.53;2.97;;;18.40;98.60;;;;;;4996757;28;20037;-71
2021/09/28 09:50:24;;;;;;;10.18;4.40;;;18.50;98.70;;;;;;5007941;28;20037;-71
2021/09/28 09:53:05;;;;;;;8.00;3.35;;;18.50;98.60;;;;;;5012681;28;20022;-70
2021/09/28 09:55:32;;;;;;;6.00;3.50;;;18.50;98.60;;;;;;5011356;28;20060;-71
2021/09/28 09:58:00;;;;;;;8.63;3.25;;;18.50;98.50;;;;;;5012500;28;20038;-71
2021/09/28 10:00:26;;;;;;;6.20;3.00;;;18.50;98.50;;;;;;5006391;28;20029;-71
2021/09/28 10:02:51;;;;;;;7.65;3.75;;;18.50;98.60;;;;;;5000024;28;20040;-71
2021/09/28 10:05:18;;;;;;;7.43;3.80;;;18.50;98.60;;;;;;4992708;28;20085;-71
2021/09/28 10:07:48;;;;;;;9.13;4.05;;;18.60;98.70;;;;;;5010654;28;20174;-71
2021/09/28 10:10:16;;;;;;;7.70;3.85;;;18.60;98.60;;;;;;5030550;28;20032;-71
2021/09/28 10:12:42;;;;;;;10.30;4.95;;;18.60;98.80;;;;;;5018469;28;20034;-71
2021/09/28 10:15:15;;;;;;;12.18;4.63;;;18.60;98.70;;;;;;5012127;28;20036;-71
2021/09/28 10:17:43;;;;;;;9.13;4.18;;;18.70;98.70;;;;;;5010591;28;20060;-71
2021/09/28 10:20:21;;;;;;;7.75;3.75;;;18.60;98.50;;;;;;4991312;28;20446;-71
2021/09/28 10:22:58;;;;;;;6.72;3.88;;;18.70;98.50;;;;;;4992770;28;20050;-72
2021/09/28 10:25:36;;;;;;;9.38;3.65;;;18.70;98.60;;;;;;4992486;28;20066;-72
2021/09/28 10:28:04;;;;;;;7.43;3.85;;;18.70;98.70;;;;;;5001679;28;20094;-72
2021/09/28 10:30:33;;;;;;;9.65;4.18;;;18.80;98.60;;;;;;5012211;28;20053;-72
2021/09/28 10:33:00;;;;;;;10.73;4.30;;;18.90;98.50;;;;;;5010308;28;20105;-71
2021/09/28 10:35:26;;;;;;;8.98;4.07;;;18.90;98.50;;;;;;4999212;28;20033;-72
2021/09/28 10:37:55;;;;;;;10.10;4.18;;;19.00;98.70;;;;;;4999114;28;20048;-72
2021/09/28 10:40:20;;;;;;;8.63;4.30;;;19.10;98.60;;;;;;5011709;28;20040;-72
2021/09/28 10:42:48;;;;;;;8.95;4.30;;;19.10;98.50;;;;;;5011286;28;20021;-72
2021/09/28 10:45:40;;;;;;;14.50;4.63;;;19.20;98.60;;;;;;5011160;28;20394;-72
2021/09/28 10:48:23;;;;;;;7.20;4.10;;;19.30;98.40;;;;;;5009735;28;20022;-72
2021/09/28 10:51:06;;;;;;;12.35;3.58;;;19.30;98.20;;;;;;4997908;28;20110;-72
2021/09/28 10:53:38;;;;;;;11.05;3.85;;;19.30;98.10;;;;;;5002129;28;20029;-71
2021/09/28 10:56:11;;;;;;;8.57;2.80;;;19.40;98.10;;;;;;5010308;28;20053;-72
2021/09/28 10:59:00;;;;;;;8.30;2.88;;;19.40;97.20;;;;;;5011107;28;20117;-71
2021/09/28 11:01:27;;;;;;;10.95;3.30;;;19.30;97.20;;;;;;5011842;28;20240;-72
2021/09/28 11:03:56;;;;;;;7.07;3.20;;;19.20;97.10;;;;;;5010799;28;20153;-72
2021/09/28 11:06:42;;;;;;;7.68;3.50;;;19.30;97.20;;;;;;5013309;28;20026;-72
2021/09/28 11:09:08;;;;;;;5.80;3.15;;;19.30;97.20;;;;;;5014914;28;20037;-72
2021/09/28 11:11:34;;;;;;;7.60;3.10;;;19.40;97.60;;;;;;5003008;28;20057;-72
2021/09/28 11:14:02;;;;;;;9.75;3.30;;;19.40;97.40;;;;;;5012412;28;20058;-72
2021/09/28 11:16:28;;;;;;;5.40;3.17;;;19.50;97.40;;;;;;5014619;28;20026;-72
2021/09/28 11:19:00;;;;;;;9.40;3.85;;;19.50;97.30;;;;;;5015579;28;20079;-71
2021/09/28 11:21:26;;;;;;;8.52;3.60;;;19.60;96.80;;;;;;5015174;28;20113;-70
2021/09/28 11:23:54;;;;;;;8.13;3.55;;;19.50;96.50;;;;;;5015096;28;20152;-71
2021/09/28 11:26:37;;;;;;;6.75;3.33;;;19.50;96.70;;;;;;5013721;28;20342;-70
2021/09/28 11:29:03;;;;;;;9.55;4.38;;;19.50;96.90;;;;;;4995864;28;20497;-72
2021/09/28 11:31:43;;;;;;;12.70;4.13;;;19.60;96.80;;;;;;5014618;28;20466;-71
2021/09/28 11:34:09;;;;;;;9.10;4.45;;;19.60;96.80;;;;;;5014117;28;20157;-71
2021/09/28 11:36:40;;;;;;;7.80;3.38;;;19.60;96.60;;;;;;5014519;28;20030;-71
2021/09/28 11:39:13;;;;;;;10.07;3.75;;;19.60;96.40;;;;;;5014712;28;20435;-71
2021/09/28 11:41:40;;;;;;;7.57;3.55;;;19.60;96.30;;;;;;5012981;28;20509;-72
2021/09/28 11:44:06;;;;;;;7.00;2.90;;;19.60;96.30;;;;;;5014015;28;20248;-70
2021/09/28 11:46:34;;;;;;;8.45;3.65;;;19.70;96.10;;;;;;5013302;28;20121;-72
2021/09/28 11:49:05;;;;;;;8.07;3.10;;;19.70;96.00;;;;;;5014953;28;20023;-71
2021/09/28 11:51:34;;;;;;;7.93;3.42;;;19.70;95.90;;;;;;5013955;28;20029;-72
2021/09/28 11:54:07;;;;;;;8.48;2.78;;;19.80;95.80;;;;;;5014704;28;20139;-72
2021/09/28 11:56:35;;;;;;;9.30;2.95;;;19.80;95.80;;;;;;5012621;28;20021;-72
2021/09/28 11:59:02;;;;;;;7.15;2.72;;;19.90;95.70;;;;;;5015028;28;20053;-72
2021/09/28 12:01:28;;;;;;;7.07;3.03;;;19.90;95.30;;;;;;5012701;28;20034;-71
2021/09/28 12:04:06;;;;;;;9.32;3.38;;;19.90;95.20;;;;;;5014320;28;20076;-71
2021/09/28 12:06:47;;;;;;;7.78;3.05;;;20.00;95.20;;;;;;5009607;28;20019;-71
2021/09/28 12:09:14;;;;;;;8.05;2.67;;;20.10;94.80;;;;;;5006935;28;20029;-71
2021/09/28 12:11:59;;;;;;;6.50;2.53;;;20.10;94.80;;;;;;5004772;28;20037;-71
2021/09/28 12:14:35;;;;;;;5.65;2.70;;;20.10;94.50;;;;;;5009872;28;20026;-71
2021/09/28 12:17:12;;;;;;;10.00;2.97;;;20.10;94.40;;;;;;5003737;28;20164;-71
2021/09/28 12:19:41;;;;;;;9.07;3.03;;;20.20;94.20;;;;;;5002887;28;20034;-70
2021/09/28 12:22:07;;;;;;;7.78;2.80;;;20.20;94.20;;;;;;5009222;28;20510;-70
2021/09/28 12:24:49;;;;;;;6.03;2.13;;;20.20;93.70;;;;;;5007058;28;20038;-70
2021/09/28 12:27:15;;;;;;;5.40;2.78;;;20.20;93.00;;;;;;5001612;28;20470;-71
2021/09/28 12:29:44;;;;;;;6.80;2.63;;;20.10;93.40;;;;;;5010761;28;20056;-71
2021/09/28 12:32:20;;;;;;;8.30;2.70;;;20.10;93.40;;;;;;4999744;28;20109;-70
2021/09/28 12:34:58;;;;;;;5.95;3.03;;;20.10;93.70;;;;;;5008849;28;20030;-71
2021/09/28 12:37:28;;;;;;;7.45;3.10;;;20.20;93.50;;;;;;5007302;28;20021;-71
2021/09/28 12:40:08;;;;;;;7.40;3.20;;;20.20;93.60;;;;;;5003420;28;20043;-70
2021/09/28 12:42:35;;;;;;;8.15;3.20;;;20.30;93.20;;;;;;5004005;28;20026;-70
2021/09/28 12:45:09;;;;;;;10.52;3.40;;;20.30;93.30;;;;;;5002920;28;20034;-70